Time;durP1;ratioP1;P1;durP2;ratioP2;P2;SDS_P1;SDS_P2;PMS_P1;PMS_P2;Temp;Humidity;BMP_temperature;BMP_pressure;BME280_temperature;BME280_humidity;BME280_pressure;Samples;Min_cycle;Max_cycle;Signal;HPM_P1;HPM_P2
2021/09/05 01:46:42;;;;;;;12.95;11.55;;;;;;;14.52;72.81;99075.91;2627058;46;20078;-70
2021/09/05 01:49:43;;;;;;;12.70;11.35;;;;;;;14.53;72.97;99080.19;2626261;54;20026;-71
2021/09/05 01:52:31;;;;;;;13.02;11.68;;;;;;;14.53;73.01;99074.88;2626935;54;20038;-71
2021/09/05 01:55:24;;;;;;;15.43;12.27;;;;;;;14.53;73.29;99074.88;2626062;47;20038;-70
2021/09/05 01:58:12;;;;;;;13.25;11.90;;;;;;;14.54;72.84;99081.84;2626439;54;20041;-71
2021/09/05 02:01:13;;;;;;;12.82;11.20;;;;;;;14.53;72.88;99083.69;2625116;54;20145;-70
2021/09/05 02:04:05;;;;;;;11.63;10.40;;;;;;;14.60;72.80;99091.63;2623624;54;20037;-70
2021/09/05 02:07:10;;;;;;;13.48;11.07;;;;;;;14.61;72.80;99088.78;2620203;54;20059;-71
2021/09/05 02:10:10;;;;;;;13.77;12.38;;;;;;;14.60;72.74;99080.97;2622380;54;20183;-71
2021/09/05 02:13:09;;;;;;;13.75;11.80;;;;;;;14.49;72.90;99078.97;2625430;54;20038;-71
2021/09/05 02:15:58;;;;;;;13.85;12.43;;;;;;;14.45;73.11;99075.91;2625059;54;20075;-71
2021/09/05 02:18:53;;;;;;;14.57;11.27;;;;;;;14.40;73.23;99081.03;2626186;54;20061;-71
2021/09/05 02:21:50;;;;;;;13.02;11.73;;;;;;;14.43;73.52;99080.63;2626395;47;20034;-70
2021/09/05 02:24:49;;;;;;;14.48;11.05;;;;;;;14.51;73.13;99080.41;2626235;39;20441;-71
2021/09/05 02:27:50;;;;;;;11.93;10.73;;;;;;;14.57;72.95;99078.75;2624687;54;20034;-71
2021/09/05 02:30:43;;;;;;;15.13;10.82;;;;;;;14.53;72.49;99082.84;2624806;54;20107;-71
2021/09/05 02:33:25;;;;;;;12.57;11.18;;;;;;;14.45;72.63;99089.22;2624791;47;20040;-71
2021/09/05 02:36:10;;;;;;;13.05;11.43;;;;;;;14.44;72.36;99087.56;2624537;47;20530;-71
2021/09/05 02:39:01;;;;;;;12.98;11.68;;;;;;;14.35;73.03;99094.97;2625098;54;20054;-71
2021/09/05 02:41:49;;;;;;;11.73;10.52;;;;;;;14.29;72.98;99087.03;2625502;54;20037;-70
2021/09/05 02:44:37;;;;;;;13.63;11.25;;;;;;;14.34;72.79;99097.84;2625877;54;20038;-70
2021/09/05 02:47:33;;;;;;;12.52;11.32;;;;;;;14.29;72.71;99100.31;2625346;47;20041;-71
2021/09/05 02:50:21;;;;;;;14.13;11.48;;;;;;;14.23;73.25;99090.50;2625465;54;20054;-71
2021/09/05 02:53:11;;;;;;;13.10;11.23;;;;;;;14.18;73.51;99098.28;2624994;46;20063;-71
2021/09/05 02:56:02;;;;;;;14.43;11.98;;;;;;;14.15;73.12;99088.06;2625091;54;20038;-70
2021/09/05 02:58:51;;;;;;;12.88;11.57;;;;;;;14.11;73.26;99082.34;2625282;47;20107;-71
2021/09/05 03:01:44;;;;;;;12.55;11.25;;;;;;;14.13;73.39;99086.44;2624150;54;20130;-70
2021/09/05 03:04:34;;;;;;;12.98;11.68;;;;;;;14.15;73.46;99088.88;2625131;47;20128;-71
2021/09/05 03:07:29;;;;;;;11.98;9.98;;;;;;;14.22;73.62;99088.88;2625166;54;20050;-71
2021/09/05 03:10:19;;;;;;;11.90;10.70;;;;;;;14.25;72.94;99089.28;2624394;47;20155;-70
2021/09/05 03:13:23;;;;;;;15.23;11.95;;;;;;;14.17;72.61;99088.69;2624101;54;20045;-71
2021/09/05 03:16:19;;;;;;;12.52;11.23;;;;;;;14.06;73.19;99090.13;2624851;47;20042;-71
2021/09/05 03:19:17;;;;;;;18.88;11.25;;;;;;;13.95;73.30;99090.78;2625229;47;20042;-70
2021/09/05 03:22:13;;;;;;;15.27;10.52;;;;;;;13.97;73.57;99089.56;2624438;47;20037;-71
2021/09/05 03:24:57;;;;;;;12.57;11.30;;;;;;;14.05;73.02;99089.31;2624716;47;20034;-71
2021/09/05 03:27:53;;;;;;;14.52;12.27;;;;;;;13.98;73.15;99085.84;2627115;39;20473;-74
2021/09/05 03:30:53;;;;;;;13.18;10.75;;;;;;;13.96;73.37;99093.25;2624671;54;20058;-71
2021/09/05 03:33:33;;;;;;;13.65;12.27;;;;;;;13.94;73.09;99089.94;2623459;54;20130;-71
2021/09/05 03:36:22;;;;;;;14.55;12.50;;;;;;;13.88;73.33;99088.13;2623169;54;20061;-71
2021/09/05 03:39:10;;;;;;;13.25;11.90;;;;;;;13.78;73.61;99096.50;2623229;54;20152;-70
2021/09/05 03:42:11;;;;;;;12.52;10.95;;;;;;;13.78;73.62;99095.69;2623318;47;20039;-71
2021/09/05 03:45:02;;;;;;;13.70;12.30;;;;;;;13.79;74.00;99097.31;2623312;47;20027;-71
2021/09/05 03:47:55;;;;;;;12.88;11.55;;;;;;;13.77;73.46;99102.03;2623900;54;20027;-71
2021/09/05 03:50:44;;;;;;;14.10;12.48;;;;;;;13.74;73.46;99094.47;2623433;39;20426;-71
2021/09/05 03:53:14;;;;;;;14.88;13.07;;;;;;;13.70;73.73;99104.69;2622760;54;20035;-71
2021/09/05 03:55:46;;;;;;;15.13;12.98;;;;;;;13.72;73.73;99099.19;2621103;47;20087;-71
2021/09/05 03:58:18;;;;;;;15.40;12.18;;;;;;;13.74;73.92;99110.41;2622888;39;20645;-70
2021/09/05 04:00:48;;;;;;;13.20;10.98;;;;;;;13.74;73.86;99105.91;2623957;54;20647;-70
2021/09/05 04:03:23;;;;;;;13.98;11.20;;;;;;;13.74;73.42;99108.56;2624941;47;20047;-70
2021/09/05 04:05:54;;;;;;;13.07;11.68;;;;;;;13.74;73.30;99107.75;2625411;47;20811;-71
2021/09/05 04:08:30;;;;;;;12.95;11.52;;;;;;;13.68;73.69;99101.44;2626019;54;20090;-71
2021/09/05 04:10:59;;;;;;;14.82;11.38;;;;;;;13.70;73.85;99101.22;2626000;54;20018;-71
2021/09/05 04:13:29;;;;;;;13.32;11.65;;;;;;;13.67;73.42;99105.09;2624362;54;20038;-71
2021/09/05 04:15:59;;;;;;;12.27;10.98;;;;;;;13.59;73.71;99102.66;2623899;54;20030;-71
2021/09/05 04:18:31;;;;;;;13.98;10.90;;;;;;;13.53;73.75;99106.13;2624270;54;20042;-71
2021/09/05 04:21:01;;;;;;;15.85;11.13;;;;;;;13.51;74.08;99109.00;2623887;47;20039;-71
2021/09/05 04:23:31;;;;;;;11.00;9.90;;;;;;;13.53;74.30;99114.09;2622068;39;20475;-71
2021/09/05 04:26:00;;;;;;;12.80;11.18;;;;;;;13.58;74.18;99117.78;2620937;54;20026;-70
2021/09/05 04:28:30;;;;;;;13.00;11.00;;;;;;;13.68;74.05;99117.38;2622683;54;20535;-70
2021/09/05 04:31:00;;;;;;;12.98;11.68;;;;;;;13.69;73.89;99119.00;2624947;54;20027;-71
2021/09/05 04:33:32;;;;;;;13.20;10.18;;;;;;;13.66;73.63;99115.94;2625593;54;20049;-71
2021/09/05 04:36:03;;;;;;;11.77;10.10;;;;;;;13.72;73.54;99118.59;2625826;54;20038;-71
2021/09/05 04:38:33;;;;;;;13.77;11.65;;;;;;;13.79;73.56;99116.75;2626690;54;20033;-71
2021/09/05 04:41:02;;;;;;;13.85;10.50;;;;;;;13.69;73.01;99132.28;2626188;54;20022;-71
2021/09/05 04:43:33;;;;;;;12.43;10.75;;;;;;;13.60;73.36;99125.56;2626330;54;20086;-71
2021/09/05 04:46:02;;;;;;;11.77;10.60;;;;;;;13.62;73.83;99128.81;2626245;54;20034;-70
2021/09/05 04:48:35;;;;;;;12.52;10.02;;;;;;;13.63;73.91;99127.78;2626284;54;20078;-71
2021/09/05 04:51:04;;;;;;;15.20;10.45;;;;;;;13.64;73.15;99124.13;2626169;54;20550;-70
2021/09/05 04:53:34;;;;;;;13.68;12.20;;;;;;;13.51;73.53;99130.25;2626025;46;20074;-70
2021/09/05 04:56:04;;;;;;;12.73;11.23;;;;;;;13.48;73.75;99138.63;2625981;47;20046;-71
2021/09/05 04:58:33;;;;;;;12.00;10.73;;;;;;;13.43;74.04;99142.88;2626680;54;20027;-70
2021/09/05 05:01:03;;;;;;;14.60;10.95;;;;;;;13.46;74.18;99139.84;2626151;47;20022;-72
2021/09/05 05:03:36;;;;;;;13.48;10.23;;;;;;;13.53;74.01;99143.31;2625644;54;20042;-71
2021/09/05 05:06:25;;;;;;;13.40;11.80;;;;;;;13.60;73.74;99139.66;2625713;47;20120;-71
2021/09/05 05:08:55;;;;;;;12.50;11.30;;;;;;;13.59;73.66;99146.00;2627958;39;20438;-71
2021/09/05 05:11:24;;;;;;;13.40;10.13;;;;;;;13.58;73.80;99148.84;2626628;54;20039;-71
2021/09/05 05:13:54;;;;;;;11.45;10.18;;;;;;;13.65;73.30;99149.66;2627153;39;20411;-71
2021/09/05 05:16:24;;;;;;;12.90;11.60;;;;;;;13.70;73.25;99149.03;2626237;54;20030;-71
2021/09/05 05:18:57;;;;;;;12.90;11.60;;;;;;;13.64;73.38;99153.34;2626944;54;20041;-71
2021/09/05 05:21:27;;;;;;;13.20;10.95;;;;;;;13.61;73.42;99153.75;2625964;47;20030;-71
2021/09/05 05:23:57;;;;;;;12.77;10.85;;;;;;;13.64;73.46;99158.66;2625838;47;20041;-71
2021/09/05 05:26:28;;;;;;;12.48;11.23;;;;;;;13.69;73.17;99158.84;2626563;54;20066;-71
2021/09/05 05:29:00;;;;;;;12.50;10.80;;;;;;;13.69;72.80;99156.19;2625678;47;20030;-71
2021/09/05 05:31:30;;;;;;;13.27;10.70;;;;;;;13.72;72.55;99158.47;2626521;54;20069;-71
2021/09/05 05:34:02;;;;;;;11.75;10.25;;;;;;;13.73;72.97;99159.28;2626250;54;20047;-72
2021/09/05 05:36:33;;;;;;;12.35;11.15;;;;;;;13.79;72.71;99153.94;2626226;54;20026;-71
2021/09/05 05:39:04;;;;;;;13.23;10.88;;;;;;;13.84;72.50;99156.81;2624502;47;20032;-71
2021/09/05 05:41:34;;;;;;;12.13;10.90;;;;;;;13.86;72.58;99165.41;2625558;54;20573;-71
2021/09/05 05:44:04;;;;;;;13.32;11.93;;;;;;;13.88;72.13;99157.25;2625569;54;20038;-72
2021/09/05 05:46:34;;;;;;;11.32;10.15;;;;;;;13.92;72.23;99163.78;2625910;54;20809;-71
2021/09/05 05:49:06;;;;;;;11.85;10.65;;;;;;;14.00;71.91;99163.56;2626007;54;20157;-71
2021/09/05 05:51:36;;;;;;;15.20;10.65;;;;;;;13.99;71.94;99167.22;2625623;47;20030;-71
2021/09/05 05:54:08;;;;;;;10.70;9.60;;;;;;;14.13;71.75;99174.19;2626276;54;20034;-71
2021/09/05 05:56:39;;;;;;;10.88;9.65;;;;;;;14.24;72.09;99169.25;2625052;47;20034;-71
2021/09/05 05:59:12;;;;;;;11.30;10.05;;;;;;;14.43;71.93;99171.06;2625820;54;20041;-71
2021/09/05 06:01:46;;;;;;;11.55;10.35;;;;;;;14.53;71.45;99175.97;2625751;54;20546;-71
2021/09/05 06:04:22;;;;;;;14.93;13.32;;;;;;;14.58;71.50;99176.16;2630278;39;20335;-70
2021/09/05 06:06:53;;;;;;;14.27;12.35;;;;;;;14.61;71.75;99181.03;2625907;54;20031;-71
2021/09/05 06:09:23;;;;;;;13.90;12.10;;;;;;;14.80;72.29;99187.34;2625209;47;20031;-70
2021/09/05 06:11:53;;;;;;;12.90;11.13;;;;;;;15.04;71.32;99189.28;2624614;54;20034;-70
2021/09/05 06:14:23;;;;;;;11.35;10.00;;;;;;;15.16;71.12;99192.09;2625368;54;20042;-70
2021/09/05 06:16:53;;;;;;;11.57;10.48;;;;;;;15.31;70.66;99197.16;2626305;54;20046;-71
2021/09/05 06:19:25;;;;;;;12.02;10.70;;;;;;;15.35;70.28;99185.84;2626056;54;20045;-70
2021/09/05 06:21:56;;;;;;;12.05;10.85;;;;;;;15.38;70.63;99181.94;2626154;54;20046;-70
2021/09/05 06:24:26;;;;;;;11.80;10.60;;;;;;;15.43;70.61;99190.13;2625953;54;20026;-72
2021/09/05 06:26:56;;;;;;;21.00;17.63;;;;;;;15.49;70.32;99191.91;2625319;54;20031;-72
2021/09/05 06:29:26;;;;;;;14.38;12.30;;;;;;;15.56;70.79;99192.69;2625975;54;20581;-71
2021/09/05 06:31:56;;;;;;;23.02;18.90;;;;;;;15.66;70.26;99194.91;2626133;54;20033;-71
2021/09/05 06:34:30;;;;;;;23.45;20.38;;;;;;;15.79;69.91;99192.13;2625775;54;20031;-72
2021/09/05 06:37:00;;;;;;;21.13;15.30;;;;;;;15.83;69.70;99195.19;2625033;47;20030;-71
2021/09/05 06:39:30;;;;;;;13.73;12.27;;;;;;;15.84;70.07;99192.31;2625737;54;20082;-70
2021/09/05 06:42:00;;;;;;;16.58;13.10;;;;;;;15.96;70.19;99197.78;2625560;54;20542;-71
2021/09/05 06:44:30;;;;;;;14.57;11.57;;;;;;;16.12;69.60;99199.03;2624438;54;20038;-72
2021/09/05 06:47:00;;;;;;;13.32;11.93;;;;;;;16.22;68.79;99204.72;2621502;47;20035;-71
2021/09/05 06:49:35;;;;;;;17.55;13.98;;;;;;;16.27;68.79;99207.53;2621452;54;20031;-71
2021/09/05 06:52:05;;;;;;;14.63;12.70;;;;;;;16.41;69.33;99210.91;2625435;54;20041;-70
2021/09/05 06:54:35;;;;;;;16.33;11.50;;;;;;;16.54;68.92;99212.63;2624749;46;20054;-71
2021/09/05 06:57:06;;;;;;;16.65;13.45;;;;;;;16.66;68.70;99215.38;2625448;54;20031;-72
2021/09/05 06:59:36;;;;;;;22.38;19.50;;;;;;;16.77;68.47;99214.66;2625756;54;20593;-72
2021/09/05 07:02:06;;;;;;;21.25;15.90;;;;;;;16.83;68.23;99211.09;2625071;47;20019;-72
2021/09/05 07:04:39;;;;;;;14.77;12.60;;;;;;;16.93;67.82;99218.56;2625292;54;20038;-72
2021/09/05 07:07:09;;;;;;;11.05;9.93;;;;;;;17.02;67.38;99214.56;2623479;54;20034;-71
2021/09/05 07:09:39;;;;;;;15.40;11.23;;;;;;;17.18;66.81;99218.47;2623211;54;20678;-71
2021/09/05 07:12:09;;;;;;;18.30;12.88;;;;;;;17.29;66.82;99220.38;2624248;54;20034;-71
2021/09/05 07:14:40;;;;;;;13.65;10.93;;;;;;;17.36;66.14;99220.31;2624264;46;20023;-71
2021/09/05 07:17:10;;;;;;;16.00;13.75;;;;;;;17.49;65.38;99220.13;2623762;54;20087;-70
2021/09/05 07:19:45;;;;;;;12.95;11.60;;;;;;;17.47;65.04;99214.19;2624717;54;20027;-71
2021/09/05 07:22:14;;;;;;;12.75;11.35;;;;;;;17.45;65.25;99221.63;2623157;51;20121;-73
2021/09/05 07:24:44;;;;;;;14.73;10.82;;;;;;;17.41;65.67;99218.59;2622700;54;20538;-73
2021/09/05 07:27:14;;;;;;;14.30;10.93;;;;;;;17.50;65.14;99222.56;2624427;39;20085;-72
2021/09/05 07:29:44;;;;;;;12.98;11.68;;;;;;;17.57;64.70;99219.81;2624407;54;20046;-71
2021/09/05 07:32:14;;;;;;;15.85;11.07;;;;;;;17.60;64.72;99219.34;2624533;54;20037;-72
2021/09/05 07:34:46;;;;;;;13.88;12.38;;;;;;;17.50;64.95;99222.56;2623210;54;20030;-71
2021/09/05 07:37:22;;;;;;;15.95;12.95;;;;;;;17.41;65.00;99223.94;2624317;47;20031;-72
2021/09/05 07:39:55;;;;;;;18.35;15.98;;;;;;;17.35;65.22;99222.16;2628120;39;20417;-71
2021/09/05 07:42:26;;;;;;;16.02;13.20;;;;;;;17.24;65.47;99223.75;2626488;46;20546;-70
2021/09/05 07:44:57;;;;;;;17.05;13.02;;;;;;;17.32;65.81;99225.28;2625168;54;20023;-65
2021/09/05 07:47:27;;;;;;;17.95;13.07;;;;;;;17.46;65.43;99221.38;2620326;54;20037;-64
2021/09/05 07:50:00;;;;;;;24.45;18.33;;;;;;;17.62;65.25;99224.47;2619825;54;20030;-64
2021/09/05 07:52:30;;;;;;;17.20;15.50;;;;;;;17.61;65.65;99214.81;2619788;46;20038;-64
2021/09/05 07:55:00;;;;;;;17.30;13.27;;;;;;;17.69;65.21;99217.16;2620351;54;20087;-65
2021/09/05 07:57:30;;;;;;;17.98;13.98;;;;;;;17.80;65.45;99219.91;2620107;54;20035;-64
2021/09/05 08:00:00;;;;;;;14.63;13.13;;;;;;;17.97;65.04;99227.25;2620415;54;20042;-65
2021/09/05 08:02:41;;;;;;;18.58;14.63;;;;;;;18.16;64.62;99226.09;2620658;54;20142;-65
2021/09/05 08:05:14;;;;;;;19.13;17.13;;;;;;;18.30;64.96;99222.16;2619877;54;20023;-65
2021/09/05 08:07:44;;;;;;;18.63;16.17;;;;;;;18.32;64.90;99217.38;2620203;54;20034;-65
2021/09/05 08:10:14;;;;;;;19.85;15.00;;;;;;;18.45;64.62;99218.19;2619300;54;20022;-65
2021/09/05 08:12:43;;;;;;;19.67;16.27;;;;;;;18.59;64.90;99218.78;2620170;47;20030;-66
2021/09/05 08:15:13;;;;;;;19.30;15.73;;;;;;;18.68;64.50;99217.38;2620494;54;20159;-67
2021/09/05 08:17:43;;;;;;;27.17;16.58;;;;;;;18.78;64.15;99223.00;2619642;54;20122;-67
2021/09/05 08:20:16;;;;;;;18.20;15.32;;;;;;;18.85;64.41;99226.31;2619970;54;20038;-67
2021/09/05 08:22:47;;;;;;;17.83;14.65;;;;;;;18.93;64.05;99225.97;2621170;39;20453;-66
2021/09/05 08:25:17;;;;;;;15.30;13.75;;;;;;;19.03;64.13;99220.81;2619873;54;20038;-65
2021/09/05 08:27:47;;;;;;;17.55;14.00;;;;;;;19.16;64.11;99224.28;2619910;54;20086;-65
2021/09/05 08:30:18;;;;;;;18.50;15.18;;;;;;;19.28;63.97;99219.69;2620828;54;20026;-65
2021/09/05 08:32:48;;;;;;;16.05;13.90;;;;;;;19.39;63.61;99226.88;2621606;39;20418;-67
2021/09/05 08:35:20;;;;;;;15.65;13.95;;;;;;;19.42;63.91;99230.94;2619955;54;20038;-67
2021/09/05 08:37:49;;;;;;;18.77;13.13;;;;;;;19.56;63.40;99224.25;2620277;54;20565;-66
2021/09/05 08:40:20;;;;;;;17.90;13.10;;;;;;;19.65;62.87;99225.50;2621032;39;20438;-67
2021/09/05 08:42:50;;;;;;;16.25;13.45;;;;;;;19.75;62.91;99228.34;2620714;54;20034;-67
2021/09/05 08:45:19;;;;;;;15.95;13.85;;;;;;;19.83;62.37;99227.13;2620728;54;20060;-66
2021/09/05 08:47:50;;;;;;;15.23;13.73;;;;;;;19.91;62.54;99233.97;2619994;39;20418;-67
2021/09/05 08:50:27;;;;;;;23.23;18.02;;;;;;;20.01;62.71;99223.44;2620789;39;20433;-67
2021/09/05 08:52:57;;;;;;;14.48;12.95;;;;;;;20.11;62.02;99220.09;2619640;54;20023;-67
2021/09/05 08:55:27;;;;;;;16.38;12.95;;;;;;;20.18;61.99;99218.06;2619165;54;20026;-65
2021/09/05 08:57:57;;;;;;;15.00;12.32;;;;;;;20.41;61.07;99223.25;2619451;39;20439;-67
2021/09/05 09:00:30;;;;;;;16.73;14.48;;;;;;;20.54;61.14;99222.13;2619661;54;20078;-67
2021/09/05 09:03:03;;;;;;;14.23;11.88;;;;;;;20.67;60.24;99220.94;2618904;54;20621;-67
2021/09/05 09:05:38;;;;;;;16.13;14.45;;;;;;;20.67;60.62;99224.44;2619790;39;20431;-65
2021/09/05 09:08:09;;;;;;;25.63;22.67;;;;;;;20.85;60.02;99227.88;2619054;46;20026;-66
2021/09/05 09:10:49;;;;;;;14.65;12.02;;;;;;;21.01;59.12;99222.44;2619551;54;20027;-67
2021/09/05 09:13:28;;;;;;;13.60;11.27;;;;;;;21.14;58.02;99217.75;2619860;39;20433;-66
2021/09/05 09:15:59;;;;;;;16.33;11.52;;;;;;;21.21;58.49;99223.75;2619410;54;20037;-67
2021/09/05 09:18:30;;;;;;;12.55;11.15;;;;;;;21.31;57.64;99223.88;2618694;54;20050;-66
2021/09/05 09:21:04;;;;;;;14.18;10.98;;;;;;;21.42;57.52;99225.63;2619480;54;20027;-67
2021/09/05 09:23:35;;;;;;;12.48;9.90;;;;;;;21.55;56.47;99227.09;2618965;46;20022;-68
2021/09/05 09:26:07;;;;;;;12.75;10.80;;;;;;;21.63;56.27;99221.25;2619243;54;20045;-68
2021/09/05 09:28:39;;;;;;;11.20;10.10;;;;;;;21.79;55.49;99221.41;2619206;46;20082;-65
2021/09/05 09:31:16;;;;;;;10.90;9.45;;;;;;;21.82;55.75;99219.03;2619240;54;20050;-65
2021/09/05 09:33:48;;;;;;;12.23;10.00;;;;;;;21.95;55.17;99223.16;2619551;54;20026;-65
2021/09/05 09:36:22;;;;;;;14.63;10.25;;;;;;;22.00;54.86;99221.34;2619165;54;20026;-68
2021/09/05 09:38:56;;;;;;;10.93;9.75;;;;;;;22.04;54.88;99218.94;2618523;54;20038;-66
2021/09/05 09:41:30;;;;;;;10.75;9.60;;;;;;;22.20;54.12;99233.34;2619305;54;20041;-68
2021/09/05 09:44:02;;;;;;;11.18;9.93;;;;;;;22.32;53.70;99230.47;2619302;54;20049;-66
2021/09/05 09:46:34;;;;;;;16.33;13.93;;;;;;;22.47;53.67;99223.31;2618937;54;20030;-65
2021/09/05 09:49:07;;;;;;;18.88;14.05;;;;;;;22.49;53.46;99220.34;2618903;47;20037;-66
2021/09/05 09:51:40;;;;;;;11.02;8.57;;;;;;;22.49;53.54;99225.72;2619465;39;20449;-66
2021/09/05 09:54:10;;;;;;;11.43;9.27;;;;;;;22.53;53.20;99218.75;2618567;47;20034;-66
2021/09/05 09:56:40;;;;;;;10.05;9.05;;;;;;;22.74;52.30;99214.31;2619216;39;20439;-66
2021/09/05 09:59:09;;;;;;;11.00;9.82;;;;;;;22.94;51.33;99216.28;2619200;54;20034;-66
2021/09/05 10:01:45;;;;;;;11.57;9.27;;;;;;;22.96;51.49;99211.47;2619049;54;20037;-66
2021/09/05 10:04:16;;;;;;;19.20;11.25;;;;;;;22.95;51.78;99209.84;2618698;54;20059;-66
2021/09/05 10:06:49;;;;;;;10.57;9.40;;;;;;;23.08;50.79;99206.66;2618648;39;20434;-66
2021/09/05 10:09:20;;;;;;;10.20;8.93;;;;;;;23.28;49.40;99205.91;2618917;54;20037;-67
2021/09/05 10:11:49;;;;;;;10.20;9.20;;;;;;;23.32;49.98;99198.09;2618672;47;20034;-66
2021/09/05 10:14:23;;;;;;;9.93;8.20;;;;;;;23.30;50.53;99205.63;2619016;39;20410;-66
2021/09/05 10:16:53;;;;;;;9.85;8.82;;;;;;;23.40;50.90;99205.66;2618734;54;20034;-67
2021/09/05 10:19:23;;;;;;;10.82;8.13;;;;;;;23.58;50.17;99205.16;2618553;46;20038;-66
2021/09/05 10:21:55;;;;;;;44.03;25.25;;;;;;;23.59;50.07;99214.84;2619544;54;20041;-66
2021/09/05 10:24:25;;;;;;;10.77;8.77;;;;;;;23.69;48.93;99212.22;2619820;54;20549;-67
2021/09/05 10:27:02;;;;;;;11.43;9.85;;;;;;;23.66;49.12;99207.34;2619286;54;20041;-66
2021/09/05 10:29:33;;;;;;;9.50;8.48;;;;;;;23.84;48.16;99202.50;2619785;54;20066;-68
2021/09/05 10:32:03;;;;;;;12.05;10.18;;;;;;;23.94;47.77;99202.50;2618839;47;20034;-66
2021/09/05 10:34:35;;;;;;;9.13;8.18;;;;;;;23.90;48.11;99201.44;2619518;54;20030;-66
2021/09/05 10:37:14;;;;;;;11.48;9.15;;;;;;;23.96;48.06;99206.56;2619152;54;20034;-66
2021/09/05 10:40:11;;;;;;;7.93;6.90;;;;;;;24.10;47.14;99208.72;2620113;47;20034;-66
2021/09/05 10:42:56;;;;;;;7.18;6.10;;;;;;;24.26;46.57;99201.41;2621669;54;20041;-65
2021/09/05 10:45:27;;;;;;;6.68;5.97;;;;;;;24.40;45.42;99200.59;2622099;39;20422;-65
2021/09/05 10:47:57;;;;;;;9.35;6.88;;;;;;;24.49;44.90;99191.91;2621142;54;20033;-65
2021/09/05 10:50:34;;;;;;;6.43;5.82;;;;;;;24.61;44.63;99201.34;2620370;54;20030;-66
2021/09/05 10:53:23;;;;;;;7.22;6.47;;;;;;;24.58;43.66;99193.81;2619466;54;20078;-66
2021/09/05 10:56:13;;;;;;;7.47;6.45;;;;;;;24.56;43.19;99198.66;2619720;54;20038;-66
2021/09/05 10:58:48;;;;;;;6.70;6.10;;;;;;;24.56;44.16;99192.44;2619910;54;20026;-66
2021/09/05 11:01:25;;;;;;;6.13;5.53;;;;;;;24.70;43.99;99185.38;2619487;54;20122;-67
2021/09/05 11:04:21;;;;;;;6.38;5.40;;;;;;;24.82;43.17;99188.59;2620135;54;20041;-67
2021/09/05 11:06:52;;;;;;;6.72;5.50;;;;;;;25.00;42.72;99179.03;2619666;54;20035;-66
2021/09/05 11:09:52;;;;;;;6.30;5.70;;;;;;;25.20;41.76;99175.44;2619759;54;20038;-67
2021/09/05 11:12:48;;;;;;;6.78;5.88;;;;;;;25.34;41.65;99184.53;2619598;54;20134;-66
2021/09/05 11:15:24;;;;;;;6.47;5.15;;;;;;;25.38;41.14;99182.09;2619474;54;20551;-67
2021/09/05 11:17:58;;;;;;;8.65;6.97;;;;;;;25.52;40.91;99187.69;2619349;39;20474;-67
2021/09/05 11:20:33;;;;;;;9.52;7.90;;;;;;;25.69;40.55;99188.09;2620062;39;20408;-66
2021/09/05 11:23:03;;;;;;;6.78;5.85;;;;;;;25.84;38.90;99181.78;2619138;54;20530;-65
2021/09/05 11:25:39;;;;;;;6.35;5.72;;;;;;;25.92;38.28;99181.16;2619141;47;20035;-65
2021/09/05 11:28:12;;;;;;;5.40;4.90;;;;;;;26.08;37.79;99188.06;2619740;54;20037;-65
2021/09/05 11:31:03;;;;;;;5.53;5.03;;;;;;;26.14;37.58;99186.94;2619931;47;20018;-67
2021/09/05 11:33:34;;;;;;;4.97;4.57;;;;;;;26.11;37.67;99178.56;2621160;39;20560;-66
2021/09/05 11:36:07;;;;;;;5.63;4.70;;;;;;;26.16;38.03;99183.94;2619587;54;20038;-66
2021/09/05 11:38:40;;;;;;;6.80;5.15;;;;;;;26.31;37.43;99191.91;2618899;47;20023;-66
2021/09/05 11:41:13;;;;;;;5.50;5.00;;;;;;;26.55;36.48;99191.97;2619331;54;20121;-66
2021/09/05 11:43:43;;;;;;;5.53;5.03;;;;;;;26.55;36.34;99191.16;2618774;54;20061;-65
2021/09/05 11:46:17;;;;;;;4.43;4.13;;;;;;;26.66;36.61;99185.34;2619035;54;20039;-66
2021/09/05 11:48:58;;;;;;;6.32;5.53;;;;;;;26.78;36.65;99184.09;2619342;54;20638;-66
2021/09/05 11:51:34;;;;;;;11.93;7.95;;;;;;;26.87;35.61;99185.91;2619059;54;20061;-66
2021/09/05 11:54:05;;;;;;;6.25;4.60;;;;;;;27.01;35.85;99188.69;2619013;54;20030;-65
2021/09/05 11:56:39;;;;;;;5.25;4.75;;;;;;;27.24;35.29;99188.97;2618308;54;20077;-66
2021/09/05 11:59:12;;;;;;;5.18;4.70;;;;;;;27.31;34.82;99192.94;2619263;54;20034;-65
2021/09/05 12:01:47;;;;;;;5.15;4.65;;;;;;;27.13;34.39;99188.28;2619457;54;20034;-65
2021/09/05 12:04:21;;;;;;;5.32;4.75;;;;;;;27.24;34.12;99184.34;2619988;54;20026;-65
2021/09/05 12:06:53;;;;;;;7.25;5.22;;;;;;;27.30;33.49;99190.50;2621196;54;20035;-66
2021/09/05 12:09:30;;;;;;;5.50;4.68;;;;;;;27.41;33.01;99186.56;2621932;54;20113;-66
2021/09/05 12:12:05;;;;;;;5.40;4.63;;;;;;;27.42;33.15;99191.66;2622236;54;20086;-65
2021/09/05 12:14:37;;;;;;;5.00;4.60;;;;;;;27.51;33.02;99185.56;2622668;54;20027;-65
2021/09/05 12:17:19;;;;;;;4.35;3.95;;;;;;;27.51;33.00;99189.09;2622968;54;20030;-65
2021/09/05 12:19:55;;;;;;;6.68;5.97;;;;;;;27.60;33.14;99187.34;2621190;47;20038;-65
2021/09/05 12:22:27;;;;;;;5.15;4.65;;;;;;;27.67;32.96;99189.66;2621780;54;20030;-64
2021/09/05 12:24:57;;;;;;;4.85;4.45;;;;;;;27.80;32.54;99191.69;2623100;54;20034;-65
2021/09/05 12:27:30;;;;;;;6.28;4.22;;;;;;;27.85;32.52;99191.59;2622515;54;20117;-67
2021/09/05 12:30:26;;;;;;;6.95;5.80;;;;;;;27.82;32.38;99186.75;2622569;54;20534;-64
2021/09/05 12:33:21;;;;;;;5.20;4.70;;;;;;;27.78;32.49;99191.16;2622989;54;20082;-66
2021/09/05 12:35:53;;;;;;;7.25;4.78;;;;;;;27.86;31.99;99192.41;2622329;54;20162;-65
2021/09/05 12:38:30;;;;;;;6.45;4.82;;;;;;;27.81;32.19;99189.78;2622740;54;20022;-64
2021/09/05 12:41:07;;;;;;;5.75;5.18;;;;;;;27.87;31.98;99183.94;2623724;47;20622;-64
2021/09/05 12:43:48;;;;;;;6.53;4.30;;;;;;;27.92;31.64;99183.03;2624151;54;20057;-64
2021/09/05 12:46:21;;;;;;;4.77;4.33;;;;;;;27.81;30.54;99178.91;2621221;39;20418;-64
2021/09/05 12:48:53;;;;;;;4.90;4.33;;;;;;;27.58;30.71;99180.59;2620190;54;20033;-64
2021/09/05 12:51:24;;;;;;;8.02;7.32;;;;;;;27.54;31.33;99176.84;2620575;54;20807;-65
2021/09/05 12:54:00;;;;;;;5.88;5.35;;;;;;;27.64;32.21;99174.00;2620242;54;20018;-67
2021/09/05 12:56:30;;;;;;;5.07;4.57;;;;;;;27.78;31.47;99171.34;2619484;54;20560;-66
2021/09/05 12:59:03;;;;;;;5.90;4.70;;;;;;;27.64;31.66;99171.28;2619450;47;20030;-64
2021/09/05 13:01:34;;;;;;;8.60;4.82;;;;;;;27.69;31.52;99167.66;2618838;54;20137;-64
2021/09/05 13:04:06;;;;;;;5.13;4.72;;;;;;;27.79;31.58;99173.75;2619094;54;20070;-64
2021/09/05 13:06:36;;;;;;;5.13;4.68;;;;;;;27.74;30.88;99171.13;2619021;54;20026;-65
2021/09/05 13:09:09;;;;;;;;;;;;;;;27.59;31.37;99176.75;2619147;47;20035;-65
2021/09/05 13:11:39;;;;;;;4.45;3.88;;;;;;;27.55;31.31;99170.31;2619561;54;19938;-65
2021/09/05 13:14:12;;;;;;;4.63;4.20;;;;;;;27.64;31.30;99171.28;2619715;54;20031;-65
2021/09/05 13:16:43;;;;;;;5.22;4.53;;;;;;;27.66;31.29;99167.13;2618897;46;20829;-65
2021/09/05 13:19:13;;;;;;;4.88;4.38;;;;;;;27.61;31.61;99166.44;2619624;54;20094;-65
2021/09/05 13:21:43;;;;;;;5.32;4.80;;;;;;;27.68;32.56;99166.88;2618923;54;20022;-65
2021/09/05 13:24:14;;;;;;;6.07;5.47;;;;;;;27.63;33.27;99161.50;2619649;54;20042;-65
2021/09/05 13:26:44;;;;;;;6.10;5.32;;;;;;;27.65;33.40;99176.41;2618942;39;20425;-65
2021/09/05 13:29:17;;;;;;;8.50;7.63;;;;;;;27.69;33.57;99163.03;2619786;54;20082;-65
2021/09/05 13:31:47;;;;;;;5.30;4.80;;;;;;;27.62;33.18;99165.31;2619577;54;20061;-65
2021/09/05 13:34:18;;;;;;;7.78;5.53;;;;;;;27.51;33.41;99161.16;2619801;54;20122;-65
2021/09/05 13:36:55;;;;;;;5.65;5.15;;;;;;;27.37;33.57;99150.22;2618937;54;20026;-65
2021/09/05 13:39:25;;;;;;;6.45;5.30;;;;;;;27.37;33.79;99158.38;2619861;54;20030;-64
2021/09/05 13:41:55;;;;;;;6.03;5.35;;;;;;;27.45;33.87;99154.19;2619088;54;20037;-65
2021/09/05 13:44:27;;;;;;;7.43;6.00;;;;;;;27.42;32.96;99155.56;2619239;54;20038;-65
2021/09/05 13:46:58;;;;;;;5.80;5.25;;;;;;;27.37;33.08;99142.88;2619014;47;20552;-65